Time;durP1;ratioP1;P1;durP2;ratioP2;P2;SDS_P1;SDS_P2;PMS_P1;PMS_P2;Temp;Humidity;BMP_temperature;BMP_pressure;BME280_temperature;BME280_humidity;BME280_pressure;Samples;Min_cycle;Max_cycle;Signal;HPM_P1;HPM_P2
2024/03/14 00:00:42;;;;;;;69.47;10.02;;;;;;;7.34;100.00;93037.72;2094715;28;20055;-84
2024/03/14 00:01:43;;;;;;;40.25;9.35;;;;;;;7.47;100.00;93037.97;2096947;28;20135;-87
2024/03/14 00:02:45;;;;;;;42.55;10.23;;;;;;;7.62;100.00;93030.56;2106828;28;20016;-85
2024/03/14 00:03:47;;;;;;;51.03;9.00;;;;;;;7.53;100.00;93037.13;2106875;28;20035;-86
2024/03/14 00:04:48;;;;;;;49.58;8.90;;;;;;;7.46;100.00;93036.44;2098437;28;20020;-84
2024/03/14 00:05:50;;;;;;;53.58;8.85;;;;;;;7.51;100.00;93042.09;2106216;28;20028;-85
2024/03/14 00:06:52;;;;;;;43.03;9.10;;;;;;;7.65;100.00;93032.44;2098831;28;20063;-83
2024/03/14 00:07:57;;;;;;;66.05;9.90;;;;;;;7.42;100.00;93031.19;2114900;28;20144;-84
2024/03/14 00:08:57;;;;;;;38.53;8.75;;;;;;;7.47;100.00;93033.41;2098612;28;20020;-83
2024/03/14 00:09:58;;;;;;;55.58;8.40;;;;;;;7.57;100.00;93027.19;2106848;28;20062;-81
2024/03/14 00:10:59;;;;;;;41.78;9.27;;;;;;;7.60;100.00;93025.66;2106972;28;20071;-86
2024/03/14 00:12:04;;;;;;;55.13;9.10;;;;;;;7.41;100.00;93028.91;2099609;28;20480;-84
2024/03/14 00:13:06;;;;;;;31.48;9.10;;;;;;;7.67;100.00;93030.13;2104183;28;21297;-81
2024/03/14 00:14:06;;;;;;;40.03;9.77;;;;;;;7.75;100.00;93036.88;2107039;28;20587;-82
2024/03/14 00:15:11;;;;;;;44.75;9.77;;;;;;;7.67;100.00;93032.78;2098256;28;20035;-82
2024/03/14 00:16:14;;;;;;;22.60;9.10;;;;;;;7.62;100.00;93035.91;2090230;28;20609;-84
2024/03/14 00:17:15;;;;;;;23.50;8.63;;;;;;;7.53;100.00;93031.06;2098567;28;20461;-86
2024/03/14 00:18:18;;;;;;;19.65;10.15;;;;;;;7.55;100.00;93026.06;2106250;28;20028;-84
2024/03/14 00:19:22;;;;;;;22.10;9.48;;;;;;;7.44;100.00;93022.81;2106733;28;20536;-85
2024/03/14 00:20:23;;;;;;;29.08;10.13;;;;;;;7.51;100.00;93031.47;2106561;28;20028;-82
2024/03/14 00:21:24;;;;;;;28.67;9.75;;;;;;;7.44;100.00;93026.22;2110528;28;20031;-83
2024/03/14 00:22:25;;;;;;;23.50;10.02;;;;;;;7.69;100.00;93025.19;2106678;28;20542;-84
2024/03/14 00:23:26;;;;;;;35.20;10.98;;;;;;;7.75;100.00;93026.22;2105595;28;20483;-84
2024/03/14 00:24:27;;;;;;;28.92;10.43;;;;;;;7.67;100.00;93020.25;2104682;28;20484;-85
2024/03/14 00:25:28;;;;;;;26.10;10.70;;;;;;;7.59;100.00;93018.81;2094774;28;20078;-82
2024/03/14 00:26:30;;;;;;;20.42;10.70;;;;;;;7.61;100.00;93013.88;2088975;28;20071;-85
2024/03/14 00:27:31;;;;;;;22.80;10.15;;;;;;;7.63;100.00;93024.09;2086842;28;20040;-84
2024/03/14 00:28:33;;;;;;;35.25;11.05;;;;;;;7.65;100.00;93014.56;2095179;28;20035;-83
2024/03/14 00:29:34;;;;;;;35.40;11.20;;;;;;;7.49;100.00;93020.44;2098450;28;20028;-84
2024/03/14 00:30:36;;;;;;;18.98;11.25;;;;;;;7.55;100.00;93015.44;2098413;28;20032;-86
2024/03/14 00:31:40;;;;;;;29.35;11.68;;;;;;;7.51;100.00;93006.78;2099781;28;20024;-83
2024/03/14 00:32:41;;;;;;;28.17;11.15;;;;;;;7.64;100.00;93004.31;2106908;28;20107;-85
2024/03/14 00:33:43;;;;;;;28.40;11.73;;;;;;;7.65;100.00;93006.59;2106606;28;20016;-82
2024/03/14 00:34:44;;;;;;;28.05;11.38;;;;;;;7.68;100.00;93011.13;2098031;28;20020;-85
2024/03/14 00:35:45;;;;;;;30.58;10.50;;;;;;;7.71;100.00;93004.25;2098046;28;20362;-85
2024/03/14 00:36:46;;;;;;;19.50;11.02;;;;;;;7.73;100.00;93002.69;2089921;28;20067;-85
2024/03/14 00:37:47;;;;;;;20.77;10.95;;;;;;;7.73;100.00;92996.63;2081669;28;20025;-85
2024/03/14 00:38:48;;;;;;;21.70;12.65;;;;;;;7.67;100.00;92998.22;2095041;28;20025;-84
2024/03/14 00:39:49;;;;;;;28.10;12.60;;;;;;;7.58;100.00;92996.78;2089852;28;20065;-82
2024/03/14 00:40:49;;;;;;;22.90;11.32;;;;;;;7.54;100.00;92997.97;2098329;28;20290;-85
2024/03/14 00:41:50;;;;;;;21.35;11.80;;;;;;;7.40;100.00;92993.59;2106568;28;20089;-85
2024/03/14 00:42:52;;;;;;;23.98;12.02;;;;;;;7.64;100.00;92994.44;2098313;28;20028;-87
2024/03/14 00:43:53;;;;;;;25.33;12.57;;;;;;;7.72;100.00;92995.09;2106785;27;20027;-81
2024/03/14 00:44:54;;;;;;;26.10;12.07;;;;;;;7.57;100.00;92997.19;2114876;28;20031;-85
2024/03/14 00:45:54;;;;;;;24.02;12.32;;;;;;;7.74;100.00;92990.91;2102845;28;20481;-84
2024/03/14 00:46:55;;;;;;;21.95;11.93;;;;;;;7.72;100.00;92993.19;2097914;28;20024;-85
2024/03/14 00:47:56;;;;;;;19.98;11.38;;;;;;;7.67;100.00;92993.63;2103770;28;20035;-84
2024/03/14 00:48:57;;;;;;;20.50;11.95;;;;;;;7.81;100.00;92992.69;2098331;28;20395;-85
2024/03/14 00:49:58;;;;;;;20.40;11.68;;;;;;;7.80;100.00;92997.25;2098056;28;20033;-85
2024/03/14 00:50:59;;;;;;;26.60;11.35;;;;;;;7.80;100.00;92997.25;2098127;28;20036;-84
2024/03/14 00:52:00;;;;;;;19.58;10.88;;;;;;;7.85;100.00;92993.41;2106377;28;20051;-84
2024/03/14 00:53:02;;;;;;;24.05;12.50;;;;;;;7.86;100.00;92986.94;2100343;28;20511;-84
2024/03/14 00:54:04;;;;;;;20.13;11.60;;;;;;;7.93;100.00;92989.50;2104956;28;20040;-85
2024/03/14 00:55:06;;;;;;;20.55;11.75;;;;;;;7.79;100.00;92987.03;2091943;28;20066;-84
2024/03/14 00:56:11;;;;;;;22.50;11.35;;;;;;;7.67;100.00;92987.56;2085514;28;20021;-87
2024/03/14 00:57:12;;;;;;;20.08;11.90;;;;;;;7.82;100.00;92992.31;2096628;28;20048;-83
2024/03/14 00:58:13;;;;;;;29.50;13.10;;;;;;;7.78;100.00;92985.53;2091736;28;20025;-84
2024/03/14 00:59:14;;;;;;;19.33;11.48;;;;;;;7.83;100.00;92985.06;2089877;28;20501;-82
2024/03/14 01:00:17;;;;;;;22.45;11.73;;;;;;;7.66;100.00;92983.41;2089770;28;20123;-86
2024/03/14 01:01:19;;;;;;;23.45;11.23;;;;;;;7.74;100.00;92992.81;2090567;28;20021;-84
2024/03/14 01:02:20;;;;;;;19.98;11.07;;;;;;;7.72;100.00;92985.19;2090101;28;20029;-84
2024/03/14 01:03:21;;;;;;;24.75;11.85;;;;;;;7.91;100.00;92983.09;2097928;28;20021;-86
2024/03/14 01:04:22;;;;;;;22.35;11.43;;;;;;;7.86;100.00;92973.63;2097597;28;20086;-82
2024/03/14 01:05:24;;;;;;;20.70;11.07;;;;;;;7.66;100.00;92986.06;2089759;28;20056;-85
2024/03/14 01:06:26;;;;;;;21.55;12.57;;;;;;;7.56;100.00;92983.16;2093851;28;20428;-85
2024/03/14 01:07:27;;;;;;;22.08;11.90;;;;;;;7.72;100.00;92981.78;2097957;28;20032;-82
2024/03/14 01:08:29;;;;;;;25.13;11.82;;;;;;;7.72;100.00;92982.53;2105914;28;20074;-82
2024/03/14 01:09:30;;;;;;;23.75;12.35;;;;;;;7.54;100.00;92972.13;2098014;28;20539;-83
2024/03/14 01:10:32;;;;;;;21.30;11.68;;;;;;;7.61;100.00;92978.53;2098151;28;20550;-85
2024/03/14 01:11:33;;;;;;;22.27;10.90;;;;;;;7.65;100.00;92971.25;2106511;28;20031;-83
2024/03/14 01:12:35;;;;;;;24.23;12.35;;;;;;;7.71;100.00;92970.41;2106440;28;20016;-84
2024/03/14 01:13:36;;;;;;;24.40;11.55;;;;;;;7.72;100.00;92971.16;2106401;28;20385;-85
2024/03/14 01:14:37;;;;;;;22.33;12.43;;;;;;;7.77;100.00;92978.69;2106247;28;20101;-82
2024/03/14 01:15:39;;;;;;;21.02;12.38;;;;;;;7.75;100.00;92983.66;2105433;28;20031;-83
2024/03/14 01:16:39;;;;;;;23.13;11.75;;;;;;;7.79;100.00;92974.47;2098065;28;20070;-83
2024/03/14 01:17:40;;;;;;;25.63;12.50;;;;;;;7.76;100.00;92988.56;2089620;28;20029;-84
2024/03/14 01:18:42;;;;;;;21.15;10.88;;;;;;;7.64;100.00;92983.03;2096193;28;20057;-83
2024/03/14 01:19:43;;;;;;;21.83;11.77;;;;;;;7.70;100.00;92982.19;2104469;28;20024;-86
2024/03/14 01:20:45;;;;;;;22.02;12.15;;;;;;;7.69;100.00;92982.63;2106112;28;20024;-85
2024/03/14 01:21:46;;;;;;;22.88;11.90;;;;;;;7.78;100.00;92982.88;2095299;28;20869;-84
2024/03/14 01:22:48;;;;;;;21.40;10.60;;;;;;;7.63;100.00;92979.63;2097957;28;20074;-83
2024/03/14 01:23:49;;;;;;;20.88;11.38;;;;;;;7.72;100.00;92973.81;2098046;28;20447;-82
2024/03/14 01:24:50;;;;;;;20.20;11.35;;;;;;;7.57;100.00;92974.00;2097951;28;20040;-83
2024/03/14 01:25:51;;;;;;;21.63;11.88;;;;;;;7.66;100.00;92975.41;2109946;28;20072;-82
2024/03/14 01:26:52;;;;;;;20.95;11.43;;;;;;;7.67;100.00;92979.59;2107200;28;20449;-82
2024/03/14 01:27:53;;;;;;;23.17;11.18;;;;;;;7.61;100.00;92970.56;2106283;28;20028;-82
2024/03/14 01:28:54;;;;;;;21.52;11.52;;;;;;;7.75;100.00;92973.03;2114136;28;20480;-82
2024/03/14 01:29:55;;;;;;;20.60;11.30;;;;;;;7.87;100.00;92974.38;2114782;28;20023;-84
2024/03/14 01:30:58;;;;;;;24.10;10.90;;;;;;;7.89;100.00;92970.16;2114635;28;20410;-85
2024/03/14 01:31:59;;;;;;;21.92;11.13;;;;;;;7.93;100.00;92962.13;2098564;28;20028;-81
2024/03/14 01:33:00;;;;;;;21.35;10.55;;;;;;;7.82;100.00;92962.28;2097835;28;20131;-83
2024/03/14 01:34:01;;;;;;;22.17;11.05;;;;;;;7.70;100.00;92968.16;2105972;28;20031;-84
2024/03/14 01:35:05;;;;;;;22.85;11.48;;;;;;;7.71;100.00;92957.09;2097884;28;20403;-85
2024/03/14 01:36:06;;;;;;;21.35;10.93;;;;;;;7.61;100.00;92960.66;2098454;28;20031;-82
2024/03/14 01:37:10;;;;;;;20.23;10.32;;;;;;;7.62;100.00;92953.44;2097812;28;20107;-84
2024/03/14 01:38:11;;;;;;;19.23;9.85;;;;;;;7.54;100.00;92958.09;2100407;28;20107;-85
2024/03/14 01:39:14;;;;;;;20.73;10.73;;;;;;;7.45;100.00;92960.47;2097685;28;20040;-81
2024/03/14 01:40:15;;;;;;;25.27;11.52;;;;;;;7.69;100.00;92954.09;2106292;28;20027;-85
2024/03/14 01:41:18;;;;;;;22.08;10.82;;;;;;;7.71;100.00;92957.09;2100543;28;20032;-84
2024/03/14 01:42:19;;;;;;;21.55;10.73;;;;;;;7.70;100.00;92960.16;2098504;28;20031;-80
2024/03/14 01:43:20;;;;;;;20.45;10.82;;;;;;;7.74;100.00;92955.56;2097757;28;20066;-85
2024/03/14 01:44:21;;;;;;;24.95;10.65;;;;;;;7.71;100.00;92961.66;2098092;28;20089;-83
2024/03/14 01:45:22;;;;;;;20.27;10.63;;;;;;;7.79;100.00;92955.84;2105518;28;20480;-82
2024/03/14 01:46:33;;;;;;;18.48;9.93;;;;;;;7.69;100.00;92962.09;2096889;28;20077;-86
2024/03/14 01:47:34;;;;;;;21.48;10.35;;;;;;;7.64;100.00;92965.19;2107077;28;20040;-86
2024/03/14 01:48:35;;;;;;;22.55;10.82;;;;;;;7.69;100.00;92959.41;2103252;28;20150;-84
2024/03/14 01:49:36;;;;;;;16.65;9.25;;;;;;;7.69;100.00;92954.09;2097576;28;20502;-85
2024/03/14 01:50:39;;;;;;;20.65;9.60;;;;;;;7.82;100.00;92949.75;2105944;28;20024;-87
2024/03/14 01:51:39;;;;;;;20.65;9.48;;;;;;;7.51;100.00;92953.59;2105659;27;20358;-81
2024/03/14 01:52:44;;;;;;;17.88;9.63;;;;;;;7.68;100.00;92957.91;2102107;28;20139;-86
2024/03/14 01:53:45;;;;;;;17.75;9.30;;;;;;;7.66;100.00;92949.56;2094736;28;20062;-86
2024/03/14 01:54:50;;;;;;;17.00;9.55;;;;;;;7.46;100.00;92949.47;2106114;28;20024;-88
2024/03/14 01:55:50;;;;;;;16.45;9.38;;;;;;;7.60;100.00;92953.84;2098583;28;20033;-87
2024/03/14 01:56:57;;;;;;;17.73;10.13;;;;;;;7.61;100.00;92954.59;2105028;28;20396;-88
2024/03/14 01:57:59;;;;;;;19.35;9.40;;;;;;;7.42;100.00;92943.44;2115398;28;20030;-83
2024/03/14 01:59:00;;;;;;;19.48;10.80;;;;;;;7.44;100.00;92948.34;2122068;27;20060;-87
2024/03/14 02:00:04;;;;;;;18.20;10.15;;;;;;;7.56;100.00;92948.56;2098568;28;20024;-84
2024/03/14 02:01:05;;;;;;;20.60;9.25;;;;;;;7.53;100.00;92936.06;2122955;27;20019;-86
2024/03/14 02:04:53;;;;;;;16.63;8.85;;;;;;;7.51;100.00;92942.94;2121413;27;20034;-86
2024/03/14 02:06:07;;;;;;;15.32;7.95;;;;;;;7.35;100.00;92935.53;2121168;27;20023;-84
2024/03/14 02:07:09;;;;;;;17.75;9.50;;;;;;;7.42;100.00;92942.66;2105917;28;20105;-85
2024/03/14 02:08:10;;;;;;;17.20;8.90;;;;;;;7.44;100.00;92943.03;2098005;28;20020;-84
2024/03/14 02:09:13;;;;;;;15.45;8.57;;;;;;;7.35;100.00;92937.44;2101137;28;20024;-83
2024/03/14 02:10:14;;;;;;;18.50;9.25;;;;;;;7.50;100.00;92936.84;2105547;28;20034;-83
2024/03/14 02:11:15;;;;;;;17.13;8.70;;;;;;;7.54;100.00;92934.16;2097628;28;20477;-84
2024/03/14 02:12:16;;;;;;;18.95;9.55;;;;;;;7.63;100.00;92933.66;2097698;28;20032;-85
2024/03/14 02:13:17;;;;;;;19.88;9.15;;;;;;;7.62;100.00;92940.13;2097571;28;20024;-85
2024/03/14 02:14:18;;;;;;;19.05;10.02;;;;;;;7.61;100.00;92942.03;2092156;28;20024;-86
2024/03/14 02:15:19;;;;;;;15.90;8.88;;;;;;;7.55;100.00;92941.75;2097628;28;20454;-82
2024/03/14 02:16:19;;;;;;;18.17;9.45;;;;;;;7.58;100.00;92937.50;2102984;28;20481;-87
2024/03/14 02:17:20;;;;;;;21.52;9.90;;;;;;;7.49;100.00;92937.25;2090528;28;20029;-83
2024/03/14 02:18:21;;;;;;;22.42;10.00;;;;;;;7.55;100.00;92938.31;2106018;28;20032;-84
2024/03/14 02:19:22;;;;;;;18.80;9.60;;;;;;;7.49;100.00;92929.28;2102178;28;20028;-86
2024/03/14 02:20:23;;;;;;;18.98;9.73;;;;;;;7.38;100.00;92934.00;2115592;27;20077;-88
2024/03/14 02:21:24;;;;;;;17.05;9.40;;;;;;;7.35;100.00;92938.19;2101589;28;20039;-85
2024/03/14 02:22:27;;;;;;;15.73;8.57;;;;;;;7.43;100.00;92933.56;2105822;28;20024;-82
2024/03/14 02:23:28;;;;;;;14.52;8.32;;;;;;;7.39;100.00;92938.91;2101931;28;20028;-83
2024/03/14 02:24:28;;;;;;;19.42;9.52;;;;;;;7.45;100.00;92929.31;2103437;28;20024;-82
2024/03/14 02:25:29;;;;;;;16.27;8.75;;;;;;;7.46;100.00;92936.16;2105841;28;20503;-82
2024/03/14 02:26:30;;;;;;;17.05;8.80;;;;;;;7.36;100.00;92928.31;2109381;28;20041;-84
2024/03/14 02:27:34;;;;;;;19.95;8.77;;;;;;;7.35;100.00;92930.22;2105935;28;20155;-85
2024/03/14 02:28:37;;;;;;;15.90;8.30;;;;;;;7.25;100.00;92934.53;2114768;28;20484;-86
2024/03/14 02:29:38;;;;;;;17.65;8.32;;;;;;;7.31;100.00;92935.56;2100399;28;20488;-84
2024/03/14 02:30:40;;;;;;;17.05;8.98;;;;;;;7.36;100.00;92931.72;2114292;28;20020;-84
2024/03/14 02:31:41;;;;;;;16.25;8.80;;;;;;;7.34;100.00;92930.63;2122571;27;20115;-88
2024/03/14 02:32:43;;;;;;;15.82;8.20;;;;;;;7.32;100.00;92936.31;2114313;28;20073;-85
2024/03/14 02:33:50;;;;;;;16.27;8.15;;;;;;;7.36;100.00;92934.38;2112515;28;20027;-84
2024/03/14 02:34:51;;;;;;;17.27;8.27;;;;;;;7.32;100.00;92929.09;2107387;28;20028;-86
2024/03/14 02:35:52;;;;;;;19.35;8.70;;;;;;;7.44;100.00;92932.38;2114265;28;20119;-82
2024/03/14 02:36:53;;;;;;;13.55;7.70;;;;;;;7.48;100.00;92933.09;2097428;28;20074;-83
2024/03/14 02:37:54;;;;;;;15.75;7.63;;;;;;;7.32;100.00;92923.03;2097785;28;20032;-84
2024/03/14 02:38:55;;;;;;;14.40;7.82;;;;;;;7.41;100.00;92925.94;2105808;28;20032;-86
2024/03/14 02:39:56;;;;;;;13.82;7.22;;;;;;;7.54;100.00;92931.50;2105760;28;20073;-82
2024/03/14 02:40:57;;;;;;;12.23;6.75;;;;;;;7.40;100.00;92923.69;2097523;28;20029;-81
2024/03/14 02:42:01;;;;;;;13.98;7.25;;;;;;;7.45;100.00;92923.25;2097474;28;20025;-82
2024/03/14 02:43:02;;;;;;;13.27;7.55;;;;;;;7.39;100.00;92925.63;2106337;28;20036;-85
2024/03/14 02:44:14;;;;;;;15.02;7.78;;;;;;;7.37;100.00;92917.28;2105922;28;20031;-83
2024/03/14 02:45:20;;;;;;;14.65;7.55;;;;;;;7.48;100.00;92922.47;2105830;28;20020;-84
2024/03/14 02:46:23;;;;;;;13.75;7.57;;;;;;;7.43;100.00;92915.69;2103661;28;20052;-82
2024/03/14 02:47:24;;;;;;;13.73;7.15;;;;;;;7.45;100.00;92917.94;2112687;28;20031;-84
2024/03/14 02:48:25;;;;;;;12.75;7.07;;;;;;;7.39;100.00;92914.97;2114376;28;20360;-84
2024/03/14 02:49:27;;;;;;;14.00;7.43;;;;;;;7.40;100.00;92915.72;2110325;28;20027;-83
2024/03/14 02:50:28;;;;;;;12.70;6.53;;;;;;;7.38;100.00;92921.47;2102305;28;20077;-83
2024/03/14 02:51:29;;;;;;;11.35;6.53;;;;;;;7.34;100.00;92920.75;2107091;28;20387;-85
2024/03/14 02:52:30;;;;;;;12.20;6.95;;;;;;;7.34;100.00;92917.34;2117506;28;20115;-84
2024/03/14 02:53:31;;;;;;;11.20;6.18;;;;;;;7.31;100.00;92921.53;2103168;28;20492;-84
2024/03/14 02:54:32;;;;;;;10.68;6.15;;;;;;;7.37;100.00;92919.19;2107544;27;20038;-85
2024/03/14 02:55:33;;;;;;;11.88;6.57;;;;;;;7.37;100.00;92921.84;2111219;28;20023;-82
2024/03/14 02:56:34;;;;;;;12.38;6.57;;;;;;;7.36;100.00;92918.44;2096759;28;20028;-82
2024/03/14 02:57:35;;;;;;;10.45;6.25;;;;;;;7.18;100.00;92913.34;2105672;28;20024;-85
2024/03/14 02:58:36;;;;;;;11.82;5.85;;;;;;;7.45;100.00;92912.63;2105700;28;20019;-84
2024/03/14 02:59:37;;;;;;;12.98;6.63;;;;;;;7.27;100.00;92918.91;2098978;28;20453;-81
2024/03/14 03:00:38;;;;;;;12.60;5.95;;;;;;;7.39;100.00;92911.56;2105840;28;20024;-82
2024/03/14 03:01:40;;;;;;;10.57;5.70;;;;;;;7.33;100.00;92919.22;2111593;28;20043;-81
2024/03/14 03:02:41;;;;;;;12.27;6.25;;;;;;;7.36;100.00;92921.09;2097805;28;20032;-84
2024/03/14 03:03:44;;;;;;;12.27;6.03;;;;;;;7.35;100.00;92922.25;2106001;28;20096;-84
2024/03/14 03:04:45;;;;;;;12.15;6.03;;;;;;;7.32;100.00;92921.13;2098897;28;20028;-85
2024/03/14 03:05:48;;;;;;;11.82;6.43;;;;;;;7.32;100.00;92923.03;2096045;28;20474;-85
2024/03/14 03:06:55;;;;;;;12.50;6.75;;;;;;;7.28;100.00;92919.66;2098033;28;20085;-83
2024/03/14 03:07:57;;;;;;;10.73;6.28;;;;;;;7.32;100.00;92920.38;2098092;28;20036;-81
2024/03/14 03:08:58;;;;;;;10.00;5.70;;;;;;;7.30;100.00;92920.03;2097268;28;20024;-81
2024/03/14 03:09:59;;;;;;;11.10;6.22;;;;;;;7.23;100.00;92918.19;2104795;28;20020;-83
2024/03/14 03:11:00;;;;;;;12.93;6.55;;;;;;;7.24;100.00;92919.72;2105093;28;20503;-87
2024/03/14 03:12:04;;;;;;;10.30;5.90;;;;;;;7.23;100.00;92915.53;2089833;28;20029;-83
2024/03/14 03:13:05;;;;;;;10.40;6.43;;;;;;;7.22;100.00;92913.28;2098037;28;20020;-83
2024/03/14 03:14:07;;;;;;;10.55;6.07;;;;;;;7.18;100.00;92913.34;2111513;28;20027;-84
2024/03/14 03:15:33;;;;;;;12.95;6.40;;;;;;;7.24;100.00;92906.44;2122706;27;20373;-84
2024/03/14 03:16:37;;;;;;;12.07;6.07;;;;;;;7.16;100.00;92906.94;2113103;28;20031;-82
2024/03/14 03:17:39;;;;;;;11.32;5.75;;;;;;;7.18;100.00;92909.94;2093889;28;20025;-86
2024/03/14 03:18:40;;;;;;;12.82;6.78;;;;;;;7.19;100.00;92912.19;2097920;28;20880;-85
2024/03/14 03:19:41;;;;;;;10.93;6.22;;;;;;;7.26;100.00;92914.00;1997736;28;20027;-82
2024/03/14 03:20:42;;;;;;;11.32;6.25;;;;;;;7.06;100.00;92911.19;2017668;28;21416;-87
2024/03/14 03:21:43;;;;;;;11.50;6.05;;;;;;;7.11;100.00;92913.41;2029590;27;21478;-84
2024/03/14 03:24:08;;;;;;;12.52;6.10;;;;;;;7.10;100.00;92908.50;2034152;27;22985;-83
2024/03/14 03:25:09;;;;;;;11.57;5.93;;;;;;;7.16;100.00;92904.28;2031068;28;20585;-84
2024/03/14 03:26:10;;;;;;;12.13;6.70;;;;;;;7.18;100.00;92909.94;2071258;28;20070;-84
2024/03/14 03:27:13;;;;;;;10.18;5.70;;;;;;;7.18;100.00;92901.94;2076691;27;20170;-87
2024/03/14 03:28:14;;;;;;;13.57;6.28;;;;;;;7.47;100.00;92907.66;2081704;27;20035;-86
2024/03/14 03:29:16;;;;;;;11.32;6.18;;;;;;;7.19;100.00;92903.44;2076124;28;20031;-86
2024/03/14 03:30:17;;;;;;;10.27;5.97;;;;;;;7.18;100.00;92909.94;2071290;28;20499;-83
2024/03/14 03:31:18;;;;;;;10.43;6.05;;;;;;;7.15;100.00;92902.75;2067836;28;20039;-85
2024/03/14 03:32:19;;;;;;;10.57;5.75;;;;;;;7.18;100.00;92907.28;2070266;28;20054;-84
2024/03/14 03:33:23;;;;;;;9.38;5.53;;;;;;;7.02;100.00;92903.28;2082131;28;20039;-84
2024/03/14 03:34:24;;;;;;;12.82;6.63;;;;;;;7.13;100.00;92907.72;2068582;28;20491;-84
2024/03/14 03:35:25;;;;;;;11.73;5.80;;;;;;;7.16;100.00;92904.28;1947005;28;20040;-83
2024/03/14 03:36:26;;;;;;;10.70;6.10;;;;;;;7.15;100.00;92908.06;1919781;28;20028;-83
2024/03/14 03:37:28;;;;;;;9.45;5.80;;;;;;;7.17;100.00;92905.78;1957086;28;20071;-83
2024/03/14 03:38:32;;;;;;;9.55;5.45;;;;;;;7.26;100.00;92901.47;1815178;28;24202;-84
2024/03/14 03:39:33;;;;;;;10.73;5.30;;;;;;;7.19;100.00;92906.84;1841211;28;20025;-83
2024/03/14 03:40:39;;;;;;;9.32;5.45;;;;;;;7.16;100.00;92906.94;1874901;28;20838;-85
2024/03/14 03:41:40;;;;;;;11.88;5.25;;;;;;;7.21;100.00;92901.16;1861310;28;21316;-82
2024/03/14 03:42:41;;;;;;;8.80;5.28;;;;;;;7.23;100.00;92904.16;1729849;28;20031;-85
2024/03/14 03:43:43;;;;;;;9.00;5.03;;;;;;;7.20;100.00;92905.72;1765263;28;20028;-82
2024/03/14 03:44:44;;;;;;;7.93;4.90;;;;;;;7.24;100.00;92901.13;1743748;28;20758;-83
2024/03/14 03:45:45;;;;;;;8.45;5.10;;;;;;;7.11;100.00;92896.72;1767351;27;23331;-82
2024/03/14 03:46:46;;;;;;;9.00;4.93;;;;;;;7.12;100.00;92906.22;1731181;28;23287;-86
2024/03/14 03:47:47;;;;;;;7.40;4.90;;;;;;;7.15;100.00;92903.50;1750625;28;20033;-82
2024/03/14 03:48:49;;;;;;;8.77;5.28;;;;;;;7.20;100.00;92896.97;1787880;28;20032;-83
2024/03/14 03:49:50;;;;;;;9.75;5.18;;;;;;;7.13;100.00;92899.75;1797738;28;20174;-82
2024/03/14 03:50:51;;;;;;;12.98;5.22;;;;;;;7.14;100.00;92898.59;1822351;28;20110;-82
2024/03/14 03:51:52;;;;;;;8.50;4.95;;;;;;;6.96;100.00;92899.56;1796412;28;21885;-83
2024/03/14 03:52:53;;;;;;;10.27;4.95;;;;;;;6.95;100.00;92899.97;1799779;28;20028;-86
2024/03/14 03:53:54;;;;;;;7.88;5.10;;;;;;;6.99;100.00;92908.63;2004038;28;20698;-85
2024/03/14 03:54:55;;;;;;;8.05;4.80;;;;;;;7.16;100.00;92906.94;2066688;28;20040;-84
2024/03/14 03:55:57;;;;;;;8.07;4.75;;;;;;;7.13;100.00;92907.72;2073587;28;20040;-87
2024/03/14 03:56:58;;;;;;;8.00;4.93;;;;;;;7.08;100.00;92906.25;2017557;28;20154;-85
2024/03/14 03:58:00;;;;;;;7.72;5.10;;;;;;;7.16;100.00;92905.03;2021213;28;20519;-83
2024/03/14 03:59:01;;;;;;;8.15;4.90;;;;;;;7.07;100.00;92907.41;2032999;28;20024;-84
2024/03/14 04:00:24;;;;;;;7.00;4.45;;;;;;;7.17;100.00;92906.53;2047571;28;20032;-83
2024/03/14 04:01:23;;;;;;;7.13;4.68;;;;;;;7.22;100.00;92903.41;2060620;27;20032;-80
2024/03/14 04:02:26;;;;;;;9.98;4.97;;;;;;;7.28;100.00;92914.34;2070848;27;20027;-82
2024/03/14 04:03:28;;;;;;;6.45;4.68;;;;;;;7.30;100.00;92909.41;2065805;28;20032;-84
2024/03/14 04:04:29;;;;;;;8.02;4.75;;;;;;;7.13;100.00;92911.13;2073554;28;20035;-82
2024/03/14 04:05:31;;;;;;;7.18;4.70;;;;;;;7.23;100.00;92910.22;2087511;28;20507;-84
2024/03/14 04:06:33;;;;;;;7.45;4.72;;;;;;;7.30;100.00;92909.41;2083891;28;20993;-85
2024/03/14 04:07:34;;;;;;;8.63;4.90;;;;;;;7.30;100.00;92907.50;2094964;28;20028;-84
2024/03/14 04:08:36;;;;;;;8.55;5.43;;;;;;;7.20;100.00;92910.28;2097931;28;20195;-83
2024/03/14 04:09:37;;;;;;;8.82;5.18;;;;;;;7.05;100.00;92902.47;2106966;28;20106;-83
2024/03/14 04:10:38;;;;;;;7.15;4.72;;;;;;;7.02;100.00;92908.59;2115395;27;20026;-86
2024/03/14 04:11:42;;;;;;;6.97;4.32;;;;;;;7.21;100.00;92904.56;2107087;28;20035;-87
2024/03/14 04:12:44;;;;;;;6.20;4.10;;;;;;;7.26;100.00;92908.69;2115758;27;20037;-82
2024/03/14 04:13:45;;;;;;;7.07;4.18;;;;;;;7.20;100.00;92903.06;2115485;27;20054;-86
2024/03/14 04:14:46;;;;;;;6.90;4.18;;;;;;;7.05;100.00;92905.13;2106687;28;20723;-86
2024/03/14 04:15:47;;;;;;;8.23;4.47;;;;;;;6.98;100.00;92904.47;2098724;28;20053;-83
2024/03/14 04:16:49;;;;;;;6.57;4.15;;;;;;;7.01;100.00;92899.09;2107138;28;20028;-83
2024/03/14 04:17:51;;;;;;;5.70;3.88;;;;;;;7.07;100.00;92908.16;2113683;28;20032;-86
2024/03/14 04:18:52;;;;;;;6.20;4.25;;;;;;;7.07;100.00;92896.78;2115559;28;20428;-86
2024/03/14 04:19:53;;;;;;;5.72;3.85;;;;;;;6.99;100.00;92903.31;2107105;28;20043;-83
2024/03/14 04:20:54;;;;;;;5.90;4.05;;;;;;;7.20;100.00;92903.06;2098710;28;20094;-85
2024/03/14 04:21:59;;;;;;;6.60;3.95;;;;;;;7.09;100.00;92907.00;2107437;28;20029;-85
2024/03/14 04:23:00;;;;;;;6.40;3.85;;;;;;;7.05;100.00;92899.06;2099010;28;20094;-85
2024/03/14 04:24:01;;;;;;;5.63;4.00;;;;;;;7.04;100.00;92905.53;2090336;28;20335;-83
2024/03/14 04:25:10;;;;;;;5.78;3.92;;;;;;;7.01;100.00;92904.41;2098695;28;20052;-86
2024/03/14 04:26:15;;;;;;;8.05;4.70;;;;;;;6.94;100.00;92899.22;2100187;28;20031;-82
2024/03/14 04:27:16;;;;;;;5.40;3.60;;;;;;;6.84;100.00;92900.06;2101228;28;20052;-84
2024/03/14 04:28:18;;;;;;;5.82;3.42;;;;;;;6.80;100.00;92896.69;2095377;28;20039;-86
2024/03/14 04:29:20;;;;;;;5.47;3.65;;;;;;;6.74;100.00;92895.63;2092847;28;20617;-84
2024/03/14 04:30:21;;;;;;;7.05;3.72;;;;;;;6.83;100.00;92909.19;2106665;28;20401;-88
2024/03/14 04:31:22;;;;;;;4.93;3.38;;;;;;;6.91;100.00;92899.25;2102448;28;20024;-84
2024/03/14 04:32:23;;;;;;;6.88;3.40;;;;;;;6.69;100.00;92910.09;2102956;28;20035;-86
2024/03/14 04:33:24;;;;;;;5.80;3.60;;;;;;;6.65;100.00;92901.41;2103612;28;20436;-84
2024/03/14 04:34:25;;;;;;;5.50;3.78;;;;;;;6.71;100.00;92904.38;2099095;28;20032;-84
2024/03/14 04:35:26;;;;;;;4.88;3.65;;;;;;;6.53;100.00;92904.56;2095224;28;20031;-82
2024/03/14 04:36:28;;;;;;;4.90;3.50;;;;;;;6.63;100.00;92897.63;2090082;28;20092;-83
2024/03/14 04:37:29;;;;;;;4.63;3.22;;;;;;;6.74;100.00;92907.00;2092601;28;20028;-83
2024/03/14 04:38:32;;;;;;;6.05;3.38;;;;;;;6.70;100.00;92905.53;2098365;28;20025;-83
2024/03/14 04:39:33;;;;;;;5.50;3.75;;;;;;;6.56;100.00;92901.88;2106906;28;20044;-83
2024/03/14 04:40:34;;;;;;;4.53;3.35;;;;;;;6.62;100.00;92901.44;2105836;28;20032;-86
2024/03/14 04:41:35;;;;;;;6.38;4.00;;;;;;;6.57;100.00;92907.94;2123446;27;20103;-87
2024/03/14 04:42:37;;;;;;;5.25;3.50;;;;;;;6.61;100.00;92900.69;2114980;28;20110;-84
2024/03/14 04:43:38;;;;;;;7.50;3.83;;;;;;;6.67;100.00;92906.31;2106892;27;20115;-87
2024/03/14 04:44:39;;;;;;;4.78;3.25;;;;;;;6.68;100.00;92894.56;2106654;28;20020;-83
2024/03/14 04:45:41;;;;;;;5.05;3.55;;;;;;;6.62;100.00;92904.09;2098414;28;20036;-82
2024/03/14 04:46:42;;;;;;;5.10;3.25;;;;;;;6.82;100.00;92895.16;2106958;27;20050;-85
2024/03/14 04:47:46;;;;;;;5.05;3.40;;;;;;;6.81;100.00;92904.28;2117773;27;20431;-87
2024/03/14 04:48:47;;;;;;;4.75;3.15;;;;;;;6.78;100.00;92902.41;2110507;28;20027;-83
2024/03/14 04:49:48;;;;;;;5.40;3.33;;;;;;;6.72;100.00;92908.56;2098153;28;20021;-84
2024/03/14 04:50:49;;;;;;;5.32;3.88;;;;;;;6.72;100.00;92903.25;2098267;28;20025;-83
2024/03/14 04:51:50;;;;;;;5.70;3.55;;;;;;;6.56;100.00;92901.88;2115041;27;20030;-86